sensor_id;sensor_type;location;lat;lon;timestamp;P1;durP1;ratioP1;P2;durP2;ratioP2
69837;SDS011;57135;51.992;4.476;2023-03-03T00:00:55;21.17;;;20.07;;
69837;SDS011;57135;51.992;4.476;2023-03-03T00:03:22;21.65;;;20.26;;
69837;SDS011;57135;51.992;4.476;2023-03-03T00:05:50;21.64;;;20.31;;
69837;SDS011;57135;51.992;4.476;2023-03-03T00:08:17;20.68;;;19.60;;
69837;SDS011;57135;51.992;4.476;2023-03-03T00:10:43;21.83;;;20.66;;
69837;SDS011;57135;51.992;4.476;2023-03-03T00:13:22;21.41;;;20.34;;
69837;SDS011;57135;51.992;4.476;2023-03-03T00:15:50;21.64;;;20.47;;
69837;SDS011;57135;51.992;4.476;2023-03-03T00:18:32;22.34;;;21.01;;
69837;SDS011;57135;51.992;4.476;2023-03-03T00:21:01;22.06;;;20.87;;
69837;SDS011;57135;51.992;4.476;2023-03-03T00:23:35;22.22;;;20.83;;
69837;SDS011;57135;51.992;4.476;2023-03-03T00:28:58;22.15;;;20.88;;
69837;SDS011;57135;51.992;4.476;2023-03-03T00:31:34;22.92;;;21.49;;
69837;SDS011;57135;51.992;4.476;2023-03-03T00:34:21;21.98;;;20.94;;
69837;SDS011;57135;51.992;4.476;2023-03-03T00:36:51;22.71;;;21.45;;
69837;SDS011;57135;51.992;4.476;2023-03-03T00:41:54;22.67;;;21.58;;
69837;SDS011;57135;51.992;4.476;2023-03-03T00:46:55;22.28;;;21.38;;
69837;SDS011;57135;51.992;4.476;2023-03-03T00:49:24;22.40;;;21.50;;
69837;SDS011;57135;51.992;4.476;2023-03-03T00:51:51;22.03;;;21.10;;
69837;SDS011;57135;51.992;4.476;2023-03-03T00:54:18;22.11;;;21.06;;
69837;SDS011;57135;51.992;4.476;2023-03-03T00:56:43;22.57;;;21.39;;
69837;SDS011;57135;51.992;4.476;2023-03-03T00:59:09;22.63;;;21.56;;
69837;SDS011;57135;51.992;4.476;2023-03-03T01:01:34;23.05;;;21.60;;
69837;SDS011;57135;51.992;4.476;2023-03-03T01:04:00;22.90;;;21.45;;
69837;SDS011;57135;51.992;4.476;2023-03-03T01:06:25;22.12;;;21.06;;
69837;SDS011;57135;51.992;4.476;2023-03-03T01:08:52;21.18;;;20.28;;
69837;SDS011;57135;51.992;4.476;2023-03-03T01:11:22;20.76;;;19.91;;
69837;SDS011;57135;51.992;4.476;2023-03-03T01:13:50;21.60;;;20.43;;
69837;SDS011;57135;51.992;4.476;2023-03-03T01:16:17;20.85;;;20.01;;
69837;SDS011;57135;51.992;4.476;2023-03-03T01:18:43;21.32;;;20.24;;
69837;SDS011;57135;51.992;4.476;2023-03-03T01:21:08;21.15;;;20.20;;
69837;SDS011;57135;51.992;4.476;2023-03-03T01:23:35;20.67;;;19.53;;
69837;SDS011;57135;51.992;4.476;2023-03-03T01:26:01;21.08;;;19.99;;
69837;SDS011;57135;51.992;4.476;2023-03-03T01:28:26;19.94;;;19.14;;
69837;SDS011;57135;51.992;4.476;2023-03-03T01:30:52;19.98;;;19.12;;
69837;SDS011;57135;51.992;4.476;2023-03-03T01:33:17;19.98;;;18.86;;
69837;SDS011;57135;51.992;4.476;2023-03-03T01:35:44;19.19;;;18.43;;
69837;SDS011;57135;51.992;4.476;2023-03-03T01:38:11;17.57;;;16.91;;
69837;SDS011;57135;51.992;4.476;2023-03-03T01:40:38;17.47;;;16.77;;
69837;SDS011;57135;51.992;4.476;2023-03-03T01:43:03;17.20;;;16.55;;
69837;SDS011;57135;51.992;4.476;2023-03-03T01:45:30;16.48;;;15.93;;
69837;SDS011;57135;51.992;4.476;2023-03-03T01:48:05;16.04;;;15.58;;
69837;SDS011;57135;51.992;4.476;2023-03-03T01:53:12;15.28;;;14.80;;
69837;SDS011;57135;51.992;4.476;2023-03-03T01:55:42;15.52;;;14.84;;
69837;SDS011;57135;51.992;4.476;2023-03-03T01:58:13;15.00;;;14.46;;
69837;SDS011;57135;51.992;4.476;2023-03-03T02:00:43;14.20;;;13.75;;
69837;SDS011;57135;51.992;4.476;2023-03-03T02:03:11;13.87;;;13.53;;
69837;SDS011;57135;51.992;4.476;2023-03-03T02:05:37;13.52;;;13.06;;
69837;SDS011;57135;51.992;4.476;2023-03-03T02:08:05;13.43;;;13.01;;
69837;SDS011;57135;51.992;4.476;2023-03-03T02:10:34;13.06;;;12.72;;
69837;SDS011;57135;51.992;4.476;2023-03-03T02:13:00;12.95;;;12.64;;
69837;SDS011;57135;51.992;4.476;2023-03-03T02:15:26;12.83;;;12.49;;
69837;SDS011;57135;51.992;4.476;2023-03-03T02:17:58;12.31;;;12.00;;
69837;SDS011;57135;51.992;4.476;2023-03-03T02:20:51;12.32;;;12.14;;
69837;SDS011;57135;51.992;4.476;2023-03-03T02:28:21;12.01;;;11.65;;
69837;SDS011;57135;51.992;4.476;2023-03-03T02:30:49;11.76;;;11.64;;
69837;SDS011;57135;51.992;4.476;2023-03-03T02:33:16;12.07;;;11.91;;
69837;SDS011;57135;51.992;4.476;2023-03-03T02:35:42;11.77;;;11.57;;
69837;SDS011;57135;51.992;4.476;2023-03-03T02:38:16;11.48;;;11.39;;
69837;SDS011;57135;51.992;4.476;2023-03-03T02:41:03;11.15;;;10.95;;
69837;SDS011;57135;51.992;4.476;2023-03-03T02:43:39;11.16;;;10.95;;
69837;SDS011;57135;51.992;4.476;2023-03-03T02:46:14;10.83;;;10.68;;
69837;SDS011;57135;51.992;4.476;2023-03-03T02:48:40;10.51;;;10.32;;
69837;SDS011;57135;51.992;4.476;2023-03-03T02:51:05;10.94;;;10.70;;
69837;SDS011;57135;51.992;4.476;2023-03-03T02:53:31;10.73;;;10.45;;
69837;SDS011;57135;51.992;4.476;2023-03-03T02:55:56;10.53;;;10.35;;
69837;SDS011;57135;51.992;4.476;2023-03-03T02:58:22;10.69;;;10.53;;
69837;SDS011;57135;51.992;4.476;2023-03-03T03:00:47;10.63;;;10.53;;
69837;SDS011;57135;51.992;4.476;2023-03-03T03:03:13;11.04;;;10.86;;
69837;SDS011;57135;51.992;4.476;2023-03-03T03:05:39;10.58;;;10.49;;
69837;SDS011;57135;51.992;4.476;2023-03-03T03:08:04;10.56;;;10.43;;
69837;SDS011;57135;51.992;4.476;2023-03-03T03:10:30;10.58;;;10.34;;
69837;SDS011;57135;51.992;4.476;2023-03-03T03:12:55;10.82;;;10.49;;
69837;SDS011;57135;51.992;4.476;2023-03-03T03:15:20;11.01;;;10.76;;
69837;SDS011;57135;51.992;4.476;2023-03-03T03:17:46;10.48;;;10.38;;
69837;SDS011;57135;51.992;4.476;2023-03-03T03:20:11;11.04;;;10.80;;
69837;SDS011;57135;51.992;4.476;2023-03-03T03:22:37;11.21;;;10.92;;
69837;SDS011;57135;51.992;4.476;2023-03-03T03:25:02;11.48;;;11.19;;
69837;SDS011;57135;51.992;4.476;2023-03-03T03:27:28;12.20;;;11.91;;
69837;SDS011;57135;51.992;4.476;2023-03-03T03:29:53;13.84;;;13.55;;
69837;SDS011;57135;51.992;4.476;2023-03-03T03:32:19;14.54;;;14.30;;
69837;SDS011;57135;51.992;4.476;2023-03-03T03:34:44;15.33;;;14.98;;
69837;SDS011;57135;51.992;4.476;2023-03-03T03:37:10;15.83;;;15.35;;
69837;SDS011;57135;51.992;4.476;2023-03-03T03:39:35;15.24;;;14.73;;
69837;SDS011;57135;51.992;4.476;2023-03-03T03:42:01;15.30;;;15.00;;
69837;SDS011;57135;51.992;4.476;2023-03-03T03:44:26;15.71;;;15.42;;
69837;SDS011;57135;51.992;4.476;2023-03-03T03:46:52;15.46;;;15.25;;
69837;SDS011;57135;51.992;4.476;2023-03-03T03:49:17;16.09;;;15.77;;
69837;SDS011;57135;51.992;4.476;2023-03-03T03:51:43;16.04;;;15.62;;
69837;SDS011;57135;51.992;4.476;2023-03-03T03:54:08;16.86;;;16.55;;
69837;SDS011;57135;51.992;4.476;2023-03-03T03:56:34;17.56;;;17.20;;
69837;SDS011;57135;51.992;4.476;2023-03-03T03:58:59;18.06;;;17.73;;
69837;SDS011;57135;51.992;4.476;2023-03-03T04:01:25;18.06;;;17.65;;
69837;SDS011;57135;51.992;4.476;2023-03-03T04:03:50;17.87;;;17.41;;
69837;SDS011;57135;51.992;4.476;2023-03-03T04:06:16;19.58;;;18.97;;
69837;SDS011;57135;51.992;4.476;2023-03-03T04:08:41;19.50;;;18.94;;
69837;SDS011;57135;51.992;4.476;2023-03-03T04:11:07;20.28;;;19.44;;
69837;SDS011;57135;51.992;4.476;2023-03-03T04:13:33;19.42;;;18.90;;
69837;SDS011;57135;51.992;4.476;2023-03-03T04:15:59;19.34;;;18.77;;
69837;SDS011;57135;51.992;4.476;2023-03-03T04:18:25;20.11;;;19.62;;
69837;SDS011;57135;51.992;4.476;2023-03-03T04:20:51;20.75;;;19.91;;
69837;SDS011;57135;51.992;4.476;2023-03-03T04:23:18;20.14;;;19.20;;
69837;SDS011;57135;51.992;4.476;2023-03-03T04:25:48;20.26;;;19.64;;
69837;SDS011;57135;51.992;4.476;2023-03-03T04:28:14;19.24;;;18.78;;
69837;SDS011;57135;51.992;4.476;2023-03-03T04:30:40;20.20;;;19.43;;
69837;SDS011;57135;51.992;4.476;2023-03-03T04:33:06;19.60;;;18.98;;
69837;SDS011;57135;51.992;4.476;2023-03-03T04:35:32;19.43;;;18.76;;
69837;SDS011;57135;51.992;4.476;2023-03-03T04:37:57;19.14;;;18.57;;
69837;SDS011;57135;51.992;4.476;2023-03-03T04:40:23;20.33;;;19.63;;
69837;SDS011;57135;51.992;4.476;2023-03-03T04:42:48;19.07;;;18.54;;
69837;SDS011;57135;51.992;4.476;2023-03-03T04:45:14;18.43;;;17.98;;
69837;SDS011;57135;51.992;4.476;2023-03-03T04:47:42;18.32;;;17.91;;
69837;SDS011;57135;51.992;4.476;2023-03-03T04:50:08;17.84;;;17.23;;
69837;SDS011;57135;51.992;4.476;2023-03-03T04:52:34;17.25;;;16.84;;
69837;SDS011;57135;51.992;4.476;2023-03-03T04:55:00;17.77;;;17.28;;
69837;SDS011;57135;51.992;4.476;2023-03-03T04:57:25;18.09;;;17.54;;
69837;SDS011;57135;51.992;4.476;2023-03-03T04:59:51;17.96;;;17.58;;
69837;SDS011;57135;51.992;4.476;2023-03-03T05:02:17;19.96;;;19.36;;
69837;SDS011;57135;51.992;4.476;2023-03-03T05:04:42;20.89;;;20.07;;
69837;SDS011;57135;51.992;4.476;2023-03-03T05:07:08;20.81;;;19.90;;
69837;SDS011;57135;51.992;4.476;2023-03-03T05:09:34;18.96;;;18.23;;
69837;SDS011;57135;51.992;4.476;2023-03-03T05:12:00;17.02;;;16.64;;
69837;SDS011;57135;51.992;4.476;2023-03-03T05:14:25;17.79;;;17.28;;
69837;SDS011;57135;51.992;4.476;2023-03-03T05:16:51;18.38;;;17.85;;
69837;SDS011;57135;51.992;4.476;2023-03-03T05:19:17;18.38;;;17.89;;
69837;SDS011;57135;51.992;4.476;2023-03-03T05:21:42;19.36;;;18.71;;
69837;SDS011;57135;51.992;4.476;2023-03-03T05:24:08;18.83;;;18.27;;
69837;SDS011;57135;51.992;4.476;2023-03-03T05:26:38;18.08;;;17.60;;
69837;SDS011;57135;51.992;4.476;2023-03-03T05:29:04;18.66;;;18.21;;
69837;SDS011;57135;51.992;4.476;2023-03-03T05:31:30;17.93;;;17.48;;
69837;SDS011;57135;51.992;4.476;2023-03-03T05:33:56;17.83;;;17.35;;
69837;SDS011;57135;51.992;4.476;2023-03-03T05:36:21;17.85;;;17.31;;
69837;SDS011;57135;51.992;4.476;2023-03-03T05:38:47;17.22;;;16.74;;
69837;SDS011;57135;51.992;4.476;2023-03-03T05:41:12;16.53;;;16.02;;
69837;SDS011;57135;51.992;4.476;2023-03-03T05:43:37;16.76;;;16.15;;
69837;SDS011;57135;51.992;4.476;2023-03-03T05:46:03;15.48;;;14.99;;
69837;SDS011;57135;51.992;4.476;2023-03-03T05:48:29;15.03;;;14.72;;
69837;SDS011;57135;51.992;4.476;2023-03-03T05:50:56;14.89;;;14.54;;
69837;SDS011;57135;51.992;4.476;2023-03-03T05:53:23;15.01;;;14.63;;
69837;SDS011;57135;51.992;4.476;2023-03-03T05:55:49;15.63;;;15.22;;
69837;SDS011;57135;51.992;4.476;2023-03-03T05:58:15;15.88;;;15.39;;
69837;SDS011;57135;51.992;4.476;2023-03-03T06:00:40;16.15;;;15.46;;
69837;SDS011;57135;51.992;4.476;2023-03-03T06:03:05;16.33;;;15.78;;
69837;SDS011;57135;51.992;4.476;2023-03-03T06:05:31;16.83;;;16.41;;
69837;SDS011;57135;51.992;4.476;2023-03-03T06:07:57;16.41;;;16.10;;
69837;SDS011;57135;51.992;4.476;2023-03-03T06:10:23;16.72;;;16.35;;
69837;SDS011;57135;51.992;4.476;2023-03-03T06:12:49;16.62;;;16.26;;
69837;SDS011;57135;51.992;4.476;2023-03-03T06:15:14;16.96;;;16.43;;
69837;SDS011;57135;51.992;4.476;2023-03-03T06:17:40;16.77;;;16.38;;
69837;SDS011;57135;51.992;4.476;2023-03-03T06:20:06;15.81;;;15.49;;
69837;SDS011;57135;51.992;4.476;2023-03-03T06:22:32;15.89;;;15.53;;
69837;SDS011;57135;51.992;4.476;2023-03-03T06:24:57;15.17;;;14.76;;
69837;SDS011;57135;51.992;4.476;2023-03-03T06:27:22;15.79;;;15.37;;
69837;SDS011;57135;51.992;4.476;2023-03-03T06:29:48;15.79;;;15.44;;
69837;SDS011;57135;51.992;4.476;2023-03-03T06:32:13;15.02;;;14.74;;
69837;SDS011;57135;51.992;4.476;2023-03-03T06:34:39;15.33;;;14.98;;
69837;SDS011;57135;51.992;4.476;2023-03-03T06:37:05;15.35;;;15.08;;
69837;SDS011;57135;51.992;4.476;2023-03-03T06:39:30;15.12;;;14.84;;
69837;SDS011;57135;51.992;4.476;2023-03-03T06:41:56;14.25;;;13.99;;
69837;SDS011;57135;51.992;4.476;2023-03-03T06:44:21;14.46;;;14.21;;
69837;SDS011;57135;51.992;4.476;2023-03-03T06:46:46;14.39;;;14.14;;
69837;SDS011;57135;51.992;4.476;2023-03-03T06:49:13;14.75;;;14.49;;
69837;SDS011;57135;51.992;4.476;2023-03-03T06:51:38;14.35;;;14.10;;
69837;SDS011;57135;51.992;4.476;2023-03-03T06:56:37;14.68;;;14.33;;
69837;SDS011;57135;51.992;4.476;2023-03-03T06:59:05;14.44;;;14.13;;
69837;SDS011;57135;51.992;4.476;2023-03-03T07:01:53;14.45;;;14.07;;
69837;SDS011;57135;51.992;4.476;2023-03-03T07:04:31;14.54;;;14.16;;
69837;SDS011;57135;51.992;4.476;2023-03-03T07:07:10;14.30;;;14.09;;
69837;SDS011;57135;51.992;4.476;2023-03-03T07:09:43;14.26;;;13.95;;
69837;SDS011;57135;51.992;4.476;2023-03-03T07:12:10;14.00;;;13.71;;
69837;SDS011;57135;51.992;4.476;2023-03-03T07:14:43;13.84;;;13.63;;
69837;SDS011;57135;51.992;4.476;2023-03-03T07:17:17;14.63;;;14.43;;
69837;SDS011;57135;51.992;4.476;2023-03-03T07:19:44;14.65;;;14.48;;
69837;SDS011;57135;51.992;4.476;2023-03-03T07:22:13;14.75;;;14.58;;
69837;SDS011;57135;51.992;4.476;2023-03-03T07:24:54;14.30;;;14.14;;
69837;SDS011;57135;51.992;4.476;2023-03-03T07:27:26;14.76;;;14.54;;
69837;SDS011;57135;51.992;4.476;2023-03-03T07:29:54;14.08;;;13.78;;
69837;SDS011;57135;51.992;4.476;2023-03-03T07:32:42;12.81;;;12.76;;
69837;SDS011;57135;51.992;4.476;2023-03-03T07:37:54;13.68;;;13.49;;
69837;SDS011;57135;51.992;4.476;2023-03-03T07:43:00;14.12;;;13.95;;
69837;SDS011;57135;51.992;4.476;2023-03-03T07:45:51;14.48;;;14.32;;
69837;SDS011;57135;51.992;4.476;2023-03-03T07:48:24;14.82;;;14.57;;
69837;SDS011;57135;51.992;4.476;2023-03-03T07:50:56;14.45;;;14.27;;
69837;SDS011;57135;51.992;4.476;2023-03-03T07:53:25;14.87;;;14.70;;
69837;SDS011;57135;51.992;4.476;2023-03-03T07:55:53;13.94;;;13.82;;
69837;SDS011;57135;51.992;4.476;2023-03-03T07:58:52;13.10;;;13.01;;
69837;SDS011;57135;51.992;4.476;2023-03-03T08:06:57;12.32;;;12.25;;
69837;SDS011;57135;51.992;4.476;2023-03-03T08:14:30;13.13;;;13.07;;
69837;SDS011;57135;51.992;4.476;2023-03-03T08:16:58;13.01;;;12.89;;
69837;SDS011;57135;51.992;4.476;2023-03-03T08:19:24;12.75;;;12.56;;
69837;SDS011;57135;51.992;4.476;2023-03-03T08:21:50;12.89;;;12.68;;
69837;SDS011;57135;51.992;4.476;2023-03-03T08:24:18;12.72;;;12.67;;
69837;SDS011;57135;51.992;4.476;2023-03-03T08:26:45;11.87;;;11.73;;
69837;SDS011;57135;51.992;4.476;2023-03-03T08:29:10;11.51;;;11.37;;
69837;SDS011;57135;51.992;4.476;2023-03-03T08:31:36;11.64;;;11.54;;
69837;SDS011;57135;51.992;4.476;2023-03-03T08:34:02;11.53;;;11.46;;
69837;SDS011;57135;51.992;4.476;2023-03-03T08:36:28;11.36;;;11.34;;
69837;SDS011;57135;51.992;4.476;2023-03-03T08:38:54;10.63;;;10.59;;
69837;SDS011;57135;51.992;4.476;2023-03-03T08:41:19;11.48;;;11.26;;
69837;SDS011;57135;51.992;4.476;2023-03-03T08:43:45;11.33;;;11.22;;
69837;SDS011;57135;51.992;4.476;2023-03-03T08:46:12;10.72;;;10.61;;
69837;SDS011;57135;51.992;4.476;2023-03-03T08:48:41;10.85;;;10.82;;
69837;SDS011;57135;51.992;4.476;2023-03-03T08:51:06;10.39;;;10.37;;
69837;SDS011;57135;51.992;4.476;2023-03-03T08:53:32;10.55;;;10.49;;
69837;SDS011;57135;51.992;4.476;2023-03-03T08:56:00;11.12;;;11.04;;
69837;SDS011;57135;51.992;4.476;2023-03-03T08:58:26;11.63;;;11.56;;
69837;SDS011;57135;51.992;4.476;2023-03-03T09:00:52;11.44;;;11.37;;
69837;SDS011;57135;51.992;4.476;2023-03-03T09:03:18;12.20;;;12.19;;
69837;SDS011;57135;51.992;4.476;2023-03-03T09:05:43;12.22;;;12.21;;
69837;SDS011;57135;51.992;4.476;2023-03-03T09:08:09;12.44;;;12.41;;
69837;SDS011;57135;51.992;4.476;2023-03-03T09:10:35;11.17;;;11.16;;
69837;SDS011;57135;51.992;4.476;2023-03-03T09:13:11;10.57;;;10.46;;
69837;SDS011;57135;51.992;4.476;2023-03-03T09:15:40;10.05;;;9.99;;
69837;SDS011;57135;51.992;4.476;2023-03-03T09:20:47;10.83;;;10.73;;
69837;SDS011;57135;51.992;4.476;2023-03-03T09:23:28;10.66;;;10.65;;
69837;SDS011;57135;51.992;4.476;2023-03-03T09:28:42;11.78;;;11.73;;
69837;SDS011;57135;51.992;4.476;2023-03-03T09:31:16;11.06;;;10.99;;
69837;SDS011;57135;51.992;4.476;2023-03-03T09:33:46;11.21;;;11.21;;
69837;SDS011;57135;51.992;4.476;2023-03-03T09:36:26;10.94;;;10.93;;
69837;SDS011;57135;51.992;4.476;2023-03-03T09:38:55;11.27;;;11.24;;
69837;SDS011;57135;51.992;4.476;2023-03-03T09:41:38;11.37;;;11.34;;
69837;SDS011;57135;51.992;4.476;2023-03-03T09:57:31;9.07;;;9.07;;
69837;SDS011;57135;51.992;4.476;2023-03-03T10:02:56;8.59;;;8.59;;
69837;SDS011;57135;51.992;4.476;2023-03-03T10:16:57;7.38;;;7.38;;
69837;SDS011;57135;51.992;4.476;2023-03-03T10:19:39;7.27;;;7.27;;
69837;SDS011;57135;51.992;4.476;2023-03-03T10:25:01;7.21;;;7.21;;
69837;SDS011;57135;51.992;4.476;2023-03-03T10:30:32;7.76;;;7.76;;
69837;SDS011;57135;51.992;4.476;2023-03-03T10:35:45;7.64;;;7.61;;
69837;SDS011;57135;51.992;4.476;2023-03-03T10:38:41;7.91;;;7.91;;
69837;SDS011;57135;51.992;4.476;2023-03-03T10:57:16;6.14;;;6.11;;
69837;SDS011;57135;51.992;4.476;2023-03-03T11:02:52;5.77;;;5.77;;
69837;SDS011;57135;51.992;4.476;2023-03-03T11:05:49;5.38;;;5.38;;
69837;SDS011;57135;51.992;4.476;2023-03-03T11:08:48;4.81;;;4.81;;
69837;SDS011;57135;51.992;4.476;2023-03-03T11:14:11;3.88;;;3.87;;
69837;SDS011;57135;51.992;4.476;2023-03-03T11:24:52;3.63;;;3.63;;
69837;SDS011;57135;51.992;4.476;2023-03-03T11:33:00;4.13;;;4.13;;
69837;SDS011;57135;51.992;4.476;2023-03-03T11:35:40;4.07;;;4.06;;
69837;SDS011;57135;51.992;4.476;2023-03-03T11:46:24;2.83;;;2.83;;
69837;SDS011;57135;51.992;4.476;2023-03-03T11:49:02;2.88;;;2.88;;
69837;SDS011;57135;51.992;4.476;2023-03-03T11:51:43;3.26;;;3.26;;
69837;SDS011;57135;51.992;4.476;2023-03-03T11:54:26;4.31;;;4.31;;
69837;SDS011;57135;51.992;4.476;2023-03-03T11:59:47;4.74;;;4.74;;
69837;SDS011;57135;51.992;4.476;2023-03-03T12:02:40;4.53;;;4.53;;
69837;SDS011;57135;51.992;4.476;2023-03-03T12:05:15;4.40;;;4.40;;
69837;SDS011;57135;51.992;4.476;2023-03-03T12:08:07;3.88;;;3.88;;
69837;SDS011;57135;51.992;4.476;2023-03-03T12:13:57;3.94;;;3.94;;
69837;SDS011;57135;51.992;4.476;2023-03-03T12:16:42;3.91;;;3.91;;
69837;SDS011;57135;51.992;4.476;2023-03-03T12:22:19;4.40;;;4.40;;
69837;SDS011;57135;51.992;4.476;2023-03-03T12:33:14;4.22;;;4.22;;
69837;SDS011;57135;51.992;4.476;2023-03-03T12:41:39;3.58;;;3.58;;
69837;SDS011;57135;51.992;4.476;2023-03-03T12:46:53;3.66;;;3.66;;
69837;SDS011;57135;51.992;4.476;2023-03-03T12:55:16;2.77;;;2.74;;
69837;SDS011;57135;51.992;4.476;2023-03-03T12:58:05;2.51;;;2.44;;
69837;SDS011;57135;51.992;4.476;2023-03-03T13:06:27;2.74;;;2.74;;
69837;SDS011;57135;51.992;4.476;2023-03-03T13:08:56;3.03;;;3.03;;
69837;SDS011;57135;51.992;4.476;2023-03-03T13:14:42;2.61;;;2.61;;
69837;SDS011;57135;51.992;4.476;2023-03-03T13:17:22;2.66;;;2.66;;
69837;SDS011;57135;51.992;4.476;2023-03-03T13:19:55;2.62;;;2.62;;
69837;SDS011;57135;51.992;4.476;2023-03-03T13:22:35;2.49;;;2.49;;
69837;SDS011;57135;51.992;4.476;2023-03-03T13:25:06;2.67;;;2.66;;
69837;SDS011;57135;51.992;4.476;2023-03-03T13:27:43;2.63;;;2.63;;
69837;SDS011;57135;51.992;4.476;2023-03-03T13:30:46;2.94;;;2.94;;
69837;SDS011;57135;51.992;4.476;2023-03-03T13:33:09;2.55;;;2.55;;
69837;SDS011;57135;51.992;4.476;2023-03-03T13:36:10;2.60;;;2.60;;
69837;SDS011;57135;51.992;4.476;2023-03-03T13:38:48;2.68;;;2.68;;
69837;SDS011;57135;51.992;4.476;2023-03-03T13:49:36;2.75;;;2.75;;
69837;SDS011;57135;51.992;4.476;2023-03-03T13:52:19;2.85;;;2.85;;
69837;SDS011;57135;51.992;4.476;2023-03-03T13:57:44;2.94;;;2.94;;
69837;SDS011;57135;51.992;4.476;2023-03-03T14:00:30;2.68;;;2.68;;
69837;SDS011;57135;51.992;4.476;2023-03-03T14:06:44;2.83;;;2.83;;
69837;SDS011;57135;51.992;4.476;2023-03-03T14:09:21;2.82;;;2.82;;
69837;SDS011;57135;51.992;4.476;2023-03-03T14:15:14;2.83;;;2.83;;
69837;SDS011;57135;51.992;4.476;2023-03-03T14:20:32;2.73;;;2.73;;
69837;SDS011;57135;51.992;4.476;2023-03-03T14:23:09;2.78;;;2.78;;
69837;SDS011;57135;51.992;4.476;2023-03-03T14:25:58;2.94;;;2.94;;
69837;SDS011;57135;51.992;4.476;2023-03-03T14:28:40;2.90;;;2.90;;
69837;SDS011;57135;51.992;4.476;2023-03-03T14:34:00;4.54;;;4.54;;
69837;SDS011;57135;51.992;4.476;2023-03-03T14:36:32;3.69;;;3.69;;
69837;SDS011;57135;51.992;4.476;2023-03-03T14:41:52;3.98;;;3.98;;
69837;SDS011;57135;51.992;4.476;2023-03-03T14:44:28;4.86;;;4.82;;
69837;SDS011;57135;51.992;4.476;2023-03-03T14:47:10;4.84;;;4.81;;
69837;SDS011;57135;51.992;4.476;2023-03-03T14:49:49;4.09;;;4.08;;
69837;SDS011;57135;51.992;4.476;2023-03-03T14:54:45;4.74;;;4.74;;
69837;SDS011;57135;51.992;4.476;2023-03-03T15:00:03;4.34;;;4.33;;
69837;SDS011;57135;51.992;4.476;2023-03-03T15:05:20;4.70;;;4.70;;
69837;SDS011;57135;51.992;4.476;2023-03-03T15:10:35;4.62;;;4.62;;
69837;SDS011;57135;51.992;4.476;2023-03-03T15:13:12;4.77;;;4.77;;
69837;SDS011;57135;51.992;4.476;2023-03-03T15:19:04;4.24;;;4.24;;
69837;SDS011;57135;51.992;4.476;2023-03-03T15:21:40;3.96;;;3.96;;
69837;SDS011;57135;51.992;4.476;2023-03-03T15:24:30;4.19;;;4.19;;
69837;SDS011;57135;51.992;4.476;2023-03-03T15:27:11;4.00;;;4.00;;
69837;SDS011;57135;51.992;4.476;2023-03-03T15:29:54;3.54;;;3.54;;
69837;SDS011;57135;51.992;4.476;2023-03-03T15:35:26;3.39;;;3.39;;
69837;SDS011;57135;51.992;4.476;2023-03-03T15:38:03;3.43;;;3.43;;
69837;SDS011;57135;51.992;4.476;2023-03-03T15:43:48;3.41;;;3.41;;
69837;SDS011;57135;51.992;4.476;2023-03-03T15:49:15;3.50;;;3.50;;
69837;SDS011;57135;51.992;4.476;2023-03-03T15:54:29;4.85;;;4.84;;
69837;SDS011;57135;51.992;4.476;2023-03-03T15:57:10;5.57;;;5.55;;
69837;SDS011;57135;51.992;4.476;2023-03-03T16:02:24;6.05;;;5.97;;
69837;SDS011;57135;51.992;4.476;2023-03-03T16:05:12;5.55;;;5.53;;
69837;SDS011;57135;51.992;4.476;2023-03-03T16:30:15;3.39;;;3.38;;
69837;SDS011;57135;51.992;4.476;2023-03-03T16:35:25;3.33;;;3.30;;
69837;SDS011;57135;51.992;4.476;2023-03-03T16:38:02;3.15;;;3.15;;
69837;SDS011;57135;51.992;4.476;2023-03-03T16:45:39;3.71;;;3.65;;
69837;SDS011;57135;51.992;4.476;2023-03-03T16:55:51;3.60;;;3.40;;
69837;SDS011;57135;51.992;4.476;2023-03-03T17:06:53;5.93;;;5.15;;
69837;SDS011;57135;51.992;4.476;2023-03-03T17:14:52;5.90;;;4.62;;
69837;SDS011;57135;51.992;4.476;2023-03-03T17:25:56;7.70;;;5.81;;
69837;SDS011;57135;51.992;4.476;2023-03-03T17:33:41;5.02;;;4.05;;
69837;SDS011;57135;51.992;4.476;2023-03-03T17:42:04;5.45;;;4.52;;
69837;SDS011;57135;51.992;4.476;2023-03-03T17:53:18;4.64;;;3.78;;
69837;SDS011;57135;51.992;4.476;2023-03-03T18:09:21;5.94;;;4.38;;
69837;SDS011;57135;51.992;4.476;2023-03-03T18:17:07;7.91;;;5.31;;
69837;SDS011;57135;51.992;4.476;2023-03-03T18:20:00;15.33;;;12.24;;
69837;SDS011;57135;51.992;4.476;2023-03-03T18:22:49;7.01;;;6.20;;
69837;SDS011;57135;51.992;4.476;2023-03-03T18:25:16;6.93;;;5.68;;
69837;SDS011;57135;51.992;4.476;2023-03-03T18:27:46;7.66;;;5.63;;
69837;SDS011;57135;51.992;4.476;2023-03-03T18:38:50;11.06;;;7.08;;
69837;SDS011;57135;51.992;4.476;2023-03-03T18:41:25;10.08;;;6.69;;
69837;SDS011;57135;51.992;4.476;2023-03-03T18:43:53;10.10;;;6.56;;
69837;SDS011;57135;51.992;4.476;2023-03-03T18:49:00;10.53;;;6.57;;
69837;SDS011;57135;51.992;4.476;2023-03-03T18:54:18;10.22;;;6.82;;
69837;SDS011;57135;51.992;4.476;2023-03-03T19:04:36;10.45;;;8.13;;
69837;SDS011;57135;51.992;4.476;2023-03-03T19:07:22;8.20;;;6.59;;
69837;SDS011;57135;51.992;4.476;2023-03-03T19:10:07;7.99;;;6.06;;
69837;SDS011;57135;51.992;4.476;2023-03-03T19:15:59;8.82;;;6.48;;
69837;SDS011;57135;51.992;4.476;2023-03-03T19:23:54;10.32;;;7.03;;
69837;SDS011;57135;51.992;4.476;2023-03-03T19:35:00;10.21;;;6.87;;
69837;SDS011;57135;51.992;4.476;2023-03-03T19:54:48;9.53;;;6.64;;
69837;SDS011;57135;51.992;4.476;2023-03-03T19:57:43;9.47;;;6.64;;
69837;SDS011;57135;51.992;4.476;2023-03-03T20:00:22;9.36;;;6.70;;
69837;SDS011;57135;51.992;4.476;2023-03-03T20:08:40;10.84;;;7.19;;
69837;SDS011;57135;51.992;4.476;2023-03-03T20:11:32;11.29;;;7.35;;
69837;SDS011;57135;51.992;4.476;2023-03-03T20:14:28;10.38;;;7.16;;
69837;SDS011;57135;51.992;4.476;2023-03-03T20:33:23;10.79;;;7.10;;
69837;SDS011;57135;51.992;4.476;2023-03-03T20:44:50;10.38;;;7.00;;
69837;SDS011;57135;51.992;4.476;2023-03-03T20:50:26;11.31;;;7.41;;
69837;SDS011;57135;51.992;4.476;2023-03-03T21:03:53;11.74;;;7.73;;
69837;SDS011;57135;51.992;4.476;2023-03-03T21:06:19;12.14;;;7.79;;
69837;SDS011;57135;51.992;4.476;2023-03-03T21:08:47;11.55;;;7.44;;
69837;SDS011;57135;51.992;4.476;2023-03-03T21:11:38;10.81;;;7.04;;
69837;SDS011;57135;51.992;4.476;2023-03-03T21:14:16;11.11;;;7.30;;
69837;SDS011;57135;51.992;4.476;2023-03-03T21:16:47;10.71;;;7.01;;
69837;SDS011;57135;51.992;4.476;2023-03-03T21:19:30;12.32;;;7.84;;
69837;SDS011;57135;51.992;4.476;2023-03-03T21:21:57;11.68;;;7.49;;
69837;SDS011;57135;51.992;4.476;2023-03-03T21:27:27;10.22;;;6.51;;
69837;SDS011;57135;51.992;4.476;2023-03-03T21:30:02;11.51;;;7.38;;
69837;SDS011;57135;51.992;4.476;2023-03-03T21:32:47;11.53;;;7.29;;
69837;SDS011;57135;51.992;4.476;2023-03-03T21:35:14;12.18;;;7.68;;
69837;SDS011;57135;51.992;4.476;2023-03-03T21:40:27;11.07;;;7.34;;
69837;SDS011;57135;51.992;4.476;2023-03-03T21:42:55;10.74;;;7.10;;
69837;SDS011;57135;51.992;4.476;2023-03-03T21:45:23;10.42;;;7.04;;
69837;SDS011;57135;51.992;4.476;2023-03-03T21:47:49;11.60;;;7.65;;
69837;SDS011;57135;51.992;4.476;2023-03-03T21:50:16;11.70;;;7.77;;
69837;SDS011;57135;51.992;4.476;2023-03-03T21:52:46;11.11;;;7.28;;
69837;SDS011;57135;51.992;4.476;2023-03-03T21:55:12;11.22;;;7.34;;